sensor_id;sensor_type;location;lat;lon;timestamp;pressure;altitude;pressure_sealevel;temperature;humidity
63607;BME280;51327;52.466;-1.938;2023-01-04T00:00:35;99109.56;;;9.83;100.00
63607;BME280;51327;52.466;-1.938;2023-01-04T00:03:03;99110.44;;;9.83;100.00
63607;BME280;51327;52.466;-1.938;2023-01-04T00:05:29;99114.06;;;9.82;100.00
63607;BME280;51327;52.466;-1.938;2023-01-04T00:07:54;99108.72;;;9.82;100.00
63607;BME280;51327;52.466;-1.938;2023-01-04T00:10:22;99107.88;;;9.82;100.00
63607;BME280;51327;52.466;-1.938;2023-01-04T00:12:47;99104.25;;;9.83;100.00
63607;BME280;51327;52.466;-1.938;2023-01-04T00:15:13;99109.56;;;9.83;100.00
63607;BME280;51327;52.466;-1.938;2023-01-04T00:17:40;99118.56;;;9.82;100.00
63607;BME280;51327;52.466;-1.938;2023-01-04T00:20:06;99114.91;;;9.83;100.00
63607;BME280;51327;52.466;-1.938;2023-01-04T00:22:32;99114.91;;;9.83;100.00
63607;BME280;51327;52.466;-1.938;2023-01-04T00:25:00;99121.97;;;9.84;100.00
63607;BME280;51327;52.466;-1.938;2023-01-04T00:27:26;99118.31;;;9.85;100.00
63607;BME280;51327;52.466;-1.938;2023-01-04T00:29:52;99126.22;;;9.87;100.00
63607;BME280;51327;52.466;-1.938;2023-01-04T00:32:19;99129.84;;;9.86;100.00
63607;BME280;51327;52.466;-1.938;2023-01-04T00:34:47;99141.38;;;9.86;100.00
63607;BME280;51327;52.466;-1.938;2023-01-04T00:37:12;99136.13;;;9.85;100.00
63607;BME280;51327;52.466;-1.938;2023-01-04T00:39:38;99129.97;;;9.84;100.00
63607;BME280;51327;52.466;-1.938;2023-01-04T00:42:05;99130.91;;;9.83;100.00
63607;BME280;51327;52.466;-1.938;2023-01-04T00:44:32;99125.72;;;9.81;100.00
63607;BME280;51327;52.466;-1.938;2023-01-04T00:46:58;99106.16;;;9.81;100.00
63607;BME280;51327;52.466;-1.938;2023-01-04T00:49:28;99091.13;;;9.80;100.00
63607;BME280;51327;52.466;-1.938;2023-01-04T00:51:54;99091.97;;;9.80;100.00
63607;BME280;51327;52.466;-1.938;2023-01-04T00:54:19;99119.38;;;9.82;100.00
63607;BME280;51327;52.466;-1.938;2023-01-04T00:56:47;99111.50;;;9.81;100.00
63607;BME280;51327;52.466;-1.938;2023-01-04T00:59:14;99104.38;;;9.81;100.00
63607;BME280;51327;52.466;-1.938;2023-01-04T01:01:40;99115.88;;;9.82;100.00
63607;BME280;51327;52.466;-1.938;2023-01-04T01:04:09;99112.38;;;9.81;100.00
63607;BME280;51327;52.466;-1.938;2023-01-04T01:06:34;99121.44;;;9.79;100.00
63607;BME280;51327;52.466;-1.938;2023-01-04T01:09:00;99121.44;;;9.79;100.00
63607;BME280;51327;52.466;-1.938;2023-01-04T01:11:28;99118.88;;;9.77;100.00
63607;BME280;51327;52.466;-1.938;2023-01-04T01:13:57;99110.88;;;9.77;100.00
63607;BME280;51327;52.466;-1.938;2023-01-04T01:16:24;99099.38;;;9.77;100.00
63607;BME280;51327;52.466;-1.938;2023-01-04T01:18:53;99086.88;;;9.77;100.00
63607;BME280;51327;52.466;-1.938;2023-01-04T01:21:20;99068.22;;;9.77;100.00
63607;BME280;51327;52.466;-1.938;2023-01-04T01:23:47;99052.31;;;9.76;100.00
63607;BME280;51327;52.466;-1.938;2023-01-04T01:26:21;99077.28;;;9.75;100.00
63607;BME280;51327;52.466;-1.938;2023-01-04T01:28:47;99051.72;;;9.72;100.00
63607;BME280;51327;52.466;-1.938;2023-01-04T01:31:14;99075.91;;;9.69;100.00
63607;BME280;51327;52.466;-1.938;2023-01-04T01:33:42;99075.06;;;9.69;100.00
63607;BME280;51327;52.466;-1.938;2023-01-04T01:36:11;99073.38;;;9.68;100.00
63607;BME280;51327;52.466;-1.938;2023-01-04T01:38:36;99086.72;;;9.68;100.00
63607;BME280;51327;52.466;-1.938;2023-01-04T01:41:03;99076.03;;;9.68;100.00
63607;BME280;51327;52.466;-1.938;2023-01-04T01:46:16;99084.88;;;9.68;100.00
63607;BME280;51327;52.466;-1.938;2023-01-04T01:48:46;99096.41;;;9.69;100.00
63607;BME280;51327;52.466;-1.938;2023-01-04T01:51:12;99107.16;;;9.67;100.00
63607;BME280;51327;52.466;-1.938;2023-01-04T01:53:40;99107.16;;;9.67;100.00
63607;BME280;51327;52.466;-1.938;2023-01-04T01:56:09;99105.47;;;9.66;100.00
63607;BME280;51327;52.466;-1.938;2023-01-04T01:58:39;99106.44;;;9.65;100.00
63607;BME280;51327;52.466;-1.938;2023-01-04T02:01:07;99106.31;;;9.67;100.00
63607;BME280;51327;52.466;-1.938;2023-01-04T02:03:36;99112.50;;;9.67;100.00
63607;BME280;51327;52.466;-1.938;2023-01-04T02:06:04;99107.91;;;9.69;100.00
63607;BME280;51327;52.466;-1.938;2023-01-04T02:08:30;99111.56;;;9.68;100.00
63607;BME280;51327;52.466;-1.938;2023-01-04T02:10:58;99102.72;;;9.68;100.00
63607;BME280;51327;52.466;-1.938;2023-01-04T02:13:25;99098.22;;;9.68;100.00
63607;BME280;51327;52.466;-1.938;2023-01-04T02:16:17;99083.91;;;9.69;100.00
63607;BME280;51327;52.466;-1.938;2023-01-04T02:18:49;99093.63;;;9.70;100.00
63607;BME280;51327;52.466;-1.938;2023-01-04T02:21:21;99096.31;;;9.70;100.00
63607;BME280;51327;52.466;-1.938;2023-01-04T02:24:11;99097.88;;;9.73;100.00
63607;BME280;51327;52.466;-1.938;2023-01-04T02:35:27;99099.38;;;9.77;100.00
63607;BME280;51327;52.466;-1.938;2023-01-04T02:37:51;99101.06;;;9.78;100.00
63607;BME280;51327;52.466;-1.938;2023-01-04T02:40:22;99097.44;;;9.79;100.00
63607;BME280;51327;52.466;-1.938;2023-01-04T02:42:54;99098.41;;;9.78;100.00
63607;BME280;51327;52.466;-1.938;2023-01-04T02:45:47;99107.97;;;9.80;100.00
63607;BME280;51327;52.466;-1.938;2023-01-04T02:48:16;99099.13;;;9.80;100.00
63607;BME280;51327;52.466;-1.938;2023-01-04T02:51:02;99113.22;;;9.82;100.00
63607;BME280;51327;52.466;-1.938;2023-01-04T02:53:32;99117.56;;;9.83;100.00
63607;BME280;51327;52.466;-1.938;2023-01-04T02:58:58;99112.13;;;9.85;100.00
63607;BME280;51327;52.466;-1.938;2023-01-04T03:04:29;99109.56;;;9.83;100.00
63607;BME280;51327;52.466;-1.938;2023-01-04T03:09:49;99113.13;;;9.83;100.00
63607;BME280;51327;52.466;-1.938;2023-01-04T03:12:22;99109.47;;;9.85;100.00
63607;BME280;51327;52.466;-1.938;2023-01-04T03:15:09;99102.44;;;9.83;100.00
63607;BME280;51327;52.466;-1.938;2023-01-04T03:17:43;99115.66;;;9.85;100.00
63607;BME280;51327;52.466;-1.938;2023-01-04T03:20:10;99109.38;;;9.86;100.00
63607;BME280;51327;52.466;-1.938;2023-01-04T03:22:41;99098.69;;;9.86;100.00
63607;BME280;51327;52.466;-1.938;2023-01-04T03:25:29;99091.44;;;9.88;100.00
63607;BME280;51327;52.466;-1.938;2023-01-04T03:28:16;99096.63;;;9.90;100.00
63607;BME280;51327;52.466;-1.938;2023-01-04T03:31:11;99096.63;;;9.90;100.00
63607;BME280;51327;52.466;-1.938;2023-01-04T03:33:59;99101.97;;;9.90;100.00
63607;BME280;51327;52.466;-1.938;2023-01-04T03:36:56;99092.06;;;9.92;100.00
63607;BME280;51327;52.466;-1.938;2023-01-04T03:45:42;99101.78;;;9.93;100.00
63607;BME280;51327;52.466;-1.938;2023-01-04T03:48:01;99105.53;;;9.90;100.00
63607;BME280;51327;52.466;-1.938;2023-01-04T03:50:52;99100.91;;;9.92;100.00
63607;BME280;51327;52.466;-1.938;2023-01-04T03:53:20;99100.91;;;9.92;100.00
63607;BME280;51327;52.466;-1.938;2023-01-04T03:55:46;99102.63;;;9.93;100.00
63607;BME280;51327;52.466;-1.938;2023-01-04T03:58:16;99107.22;;;9.91;100.00
63607;BME280;51327;52.466;-1.938;2023-01-04T04:00:44;99099.09;;;9.93;100.00
63607;BME280;51327;52.466;-1.938;2023-01-04T04:03:10;99110.53;;;9.95;100.00
63607;BME280;51327;52.466;-1.938;2023-01-04T04:05:38;99105.19;;;9.95;100.00
63607;BME280;51327;52.466;-1.938;2023-01-04T04:08:23;99103.47;;;9.94;100.00
63607;BME280;51327;52.466;-1.938;2023-01-04T04:11:00;99106.97;;;9.94;100.00
63607;BME280;51327;52.466;-1.938;2023-01-04T04:13:47;99105.28;;;9.93;100.00
63607;BME280;51327;52.466;-1.938;2023-01-04T04:16:15;99108.78;;;9.94;100.00
63607;BME280;51327;52.466;-1.938;2023-01-04T04:18:43;99110.53;;;9.95;100.00
63607;BME280;51327;52.466;-1.938;2023-01-04T04:21:10;99112.22;;;9.96;100.00
63607;BME280;51327;52.466;-1.938;2023-01-04T04:23:36;99114.03;;;9.95;100.00
63607;BME280;51327;52.466;-1.938;2023-01-04T04:26:01;99109.44;;;9.97;100.00
63607;BME280;51327;52.466;-1.938;2023-01-04T04:28:29;99115.72;;;9.96;100.00
63607;BME280;51327;52.466;-1.938;2023-01-04T04:30:56;99108.56;;;9.97;100.00
63607;BME280;51327;52.466;-1.938;2023-01-04T04:33:21;99128.94;;;9.98;100.00
63607;BME280;51327;52.466;-1.938;2023-01-04T04:35:52;99123.63;;;9.98;100.00
63607;BME280;51327;52.466;-1.938;2023-01-04T04:38:18;99131.38;;;10.01;100.00
63607;BME280;51327;52.466;-1.938;2023-01-04T04:40:44;99139.19;;;10.04;100.00
63607;BME280;51327;52.466;-1.938;2023-01-04T04:43:31;99134.59;;;10.06;100.00
63607;BME280;51327;52.466;-1.938;2023-01-04T04:45:56;99133.72;;;10.06;100.00
63607;BME280;51327;52.466;-1.938;2023-01-04T04:48:22;99144.28;;;10.07;100.00
63607;BME280;51327;52.466;-1.938;2023-01-04T04:50:50;99144.19;;;10.09;100.00
63607;BME280;51327;52.466;-1.938;2023-01-04T04:53:15;99143.09;;;10.11;100.00
63607;BME280;51327;52.466;-1.938;2023-01-04T04:55:41;99149.38;;;10.10;100.00
63607;BME280;51327;52.466;-1.938;2023-01-04T04:58:09;99143.94;;;10.12;100.00
63607;BME280;51327;52.466;-1.938;2023-01-04T05:00:35;99141.03;;;10.15;100.00
63607;BME280;51327;52.466;-1.938;2023-01-04T05:03:00;99135.84;;;10.13;100.00
63607;BME280;51327;52.466;-1.938;2023-01-04T05:05:28;99143.84;;;10.13;100.00
63607;BME280;51327;52.466;-1.938;2023-01-04T05:07:54;99147.34;;;10.14;100.00
63607;BME280;51327;52.466;-1.938;2023-01-04T05:10:19;99142.97;;;10.13;100.00
63607;BME280;51327;52.466;-1.938;2023-01-04T05:12:47;99141.28;;;10.12;100.00
63607;BME280;51327;52.466;-1.938;2023-01-04T05:15:34;99145.63;;;10.13;100.00
63607;BME280;51327;52.466;-1.938;2023-01-04T05:18:00;99134.97;;;10.13;100.00
63607;BME280;51327;52.466;-1.938;2023-01-04T05:20:28;99149.19;;;10.13;100.00
63607;BME280;51327;52.466;-1.938;2023-01-04T05:22:54;99155.59;;;10.11;100.00
63607;BME280;51327;52.466;-1.938;2023-01-04T05:25:19;99155.69;;;10.09;100.00
63607;BME280;51327;52.466;-1.938;2023-01-04T05:27:47;99156.53;;;10.10;100.00
63607;BME280;51327;52.466;-1.938;2023-01-04T05:30:15;99166.97;;;10.13;100.00
63607;BME280;51327;52.466;-1.938;2023-01-04T05:33:00;99160.06;;;10.10;100.00
63607;BME280;51327;52.466;-1.938;2023-01-04T05:35:28;99166.47;;;10.08;100.00
63607;BME280;51327;52.466;-1.938;2023-01-04T05:37:53;99153.25;;;10.06;100.00
63607;BME280;51327;52.466;-1.938;2023-01-04T05:40:19;99167.44;;;10.07;100.00
63607;BME280;51327;52.466;-1.938;2023-01-04T05:42:47;99163.06;;;10.06;100.00
63607;BME280;51327;52.466;-1.938;2023-01-04T05:45:14;99170.22;;;10.05;100.00
63607;BME280;51327;52.466;-1.938;2023-01-04T05:47:40;99186.31;;;10.03;100.00
63607;BME280;51327;52.466;-1.938;2023-01-04T05:50:06;99181.00;;;10.03;100.00
63607;BME280;51327;52.466;-1.938;2023-01-04T05:52:35;99181.88;;;10.04;100.00
63607;BME280;51327;52.466;-1.938;2023-01-04T05:55:00;99185.47;;;10.03;100.00
63607;BME280;51327;52.466;-1.938;2023-01-04T05:57:26;99181.13;;;10.02;100.00
63607;BME280;51327;52.466;-1.938;2023-01-04T05:59:53;99189.13;;;10.02;100.00
63607;BME280;51327;52.466;-1.938;2023-01-04T06:02:21;99194.56;;;10.00;100.00
63607;BME280;51327;52.466;-1.938;2023-01-04T06:04:47;99192.00;;;9.99;100.00
63607;BME280;51327;52.466;-1.938;2023-01-04T06:07:14;99199.38;;;9.95;100.00
63607;BME280;51327;52.466;-1.938;2023-01-04T06:09:43;99192.22;;;9.96;100.00
63607;BME280;51327;52.466;-1.938;2023-01-04T06:12:09;99197.03;;;9.91;100.00
63607;BME280;51327;52.466;-1.938;2023-01-04T06:14:34;99195.44;;;9.88;100.00
63607;BME280;51327;52.466;-1.938;2023-01-04T06:17:02;99189.25;;;9.88;100.00
63607;BME280;51327;52.466;-1.938;2023-01-04T06:19:30;99188.63;;;9.84;100.00
63607;BME280;51327;52.466;-1.938;2023-01-04T06:21:56;99177.53;;;9.77;100.00
63607;BME280;51327;52.466;-1.938;2023-01-04T06:24:22;99175.44;;;9.70;100.00
63607;BME280;51327;52.466;-1.938;2023-01-04T06:26:50;99184.81;;;9.62;100.00
63607;BME280;51327;52.466;-1.938;2023-01-04T06:29:16;99175.53;;;9.55;100.00
63607;BME280;51327;52.466;-1.938;2023-01-04T06:31:41;99193.69;;;9.50;100.00
63607;BME280;51327;52.466;-1.938;2023-01-04T06:34:10;99186.66;;;9.49;100.00
63607;BME280;51327;52.466;-1.938;2023-01-04T06:36:36;99183.44;;;9.44;100.00
63607;BME280;51327;52.466;-1.938;2023-01-04T06:39:01;99196.88;;;9.43;100.00
63607;BME280;51327;52.466;-1.938;2023-01-04T06:41:29;99191.44;;;9.44;100.00
63607;BME280;51327;52.466;-1.938;2023-01-04T06:43:54;99192.94;;;9.48;100.00
63607;BME280;51327;52.466;-1.938;2023-01-04T06:46:20;99181.31;;;9.49;100.00
63607;BME280;51327;52.466;-1.938;2023-01-04T06:48:47;99196.44;;;9.49;100.00
63607;BME280;51327;52.466;-1.938;2023-01-04T06:51:13;99193.91;;;9.47;100.00
63607;BME280;51327;52.466;-1.938;2023-01-04T06:53:38;99194.00;;;9.46;100.00
63607;BME280;51327;52.466;-1.938;2023-01-04T06:56:06;99198.50;;;9.45;100.00
63607;BME280;51327;52.466;-1.938;2023-01-04T06:58:35;99203.81;;;9.45;100.00
63607;BME280;51327;52.466;-1.938;2023-01-04T07:01:00;99211.59;;;9.48;100.00
63607;BME280;51327;52.466;-1.938;2023-01-04T07:03:28;99203.50;;;9.50;100.00
63607;BME280;51327;52.466;-1.938;2023-01-04T07:05:56;99208.81;;;9.50;100.00
63607;BME280;51327;52.466;-1.938;2023-01-04T07:08:21;99217.75;;;9.49;100.00
63607;BME280;51327;52.466;-1.938;2023-01-04T07:10:47;99206.16;;;9.50;100.00
63607;BME280;51327;52.466;-1.938;2023-01-04T07:13:14;99214.16;;;9.50;100.00
63607;BME280;51327;52.466;-1.938;2023-01-04T07:15:42;99214.16;;;9.50;100.00
63607;BME280;51327;52.466;-1.938;2023-01-04T07:18:08;99215.84;;;9.51;100.00
63607;BME280;51327;52.466;-1.938;2023-01-04T07:20:35;99214.91;;;9.52;100.00
63607;BME280;51327;52.466;-1.938;2023-01-04T07:23:03;99204.25;;;9.52;100.00
63607;BME280;51327;52.466;-1.938;2023-01-04T07:25:28;99202.41;;;9.52;100.00
63607;BME280;51327;52.466;-1.938;2023-01-04T07:27:54;99215.84;;;9.51;100.00
63607;BME280;51327;52.466;-1.938;2023-01-04T07:30:23;99197.31;;;9.49;100.00
63607;BME280;51327;52.466;-1.938;2023-01-04T07:32:52;99211.59;;;9.48;100.00
63607;BME280;51327;52.466;-1.938;2023-01-04T07:35:18;99209.91;;;9.47;100.00
63607;BME280;51327;52.466;-1.938;2023-01-04T07:37:46;99217.75;;;9.49;100.00
63607;BME280;51327;52.466;-1.938;2023-01-04T07:40:12;99224.81;;;9.50;100.00
63607;BME280;51327;52.466;-1.938;2023-01-04T07:42:37;99224.06;;;9.48;100.00
63607;BME280;51327;52.466;-1.938;2023-01-04T07:45:05;99221.41;;;9.48;100.00
63607;BME280;51327;52.466;-1.938;2023-01-04T07:47:33;99221.59;;;9.45;100.00
63607;BME280;51327;52.466;-1.938;2023-01-04T07:49:59;99221.50;;;9.46;100.00
63607;BME280;51327;52.466;-1.938;2023-01-04T07:52:25;99225.13;;;9.45;100.00
63607;BME280;51327;52.466;-1.938;2023-01-04T07:54:53;99222.78;;;9.40;100.00
63607;BME280;51327;52.466;-1.938;2023-01-04T07:57:20;99227.25;;;9.40;100.00
63607;BME280;51327;52.466;-1.938;2023-01-04T07:59:46;99236.44;;;9.36;100.00
63607;BME280;51327;52.466;-1.938;2023-01-04T08:02:11;99239.09;;;9.36;100.00
63607;BME280;51327;52.466;-1.938;2023-01-04T08:04:40;99251.34;;;9.38;100.00
63607;BME280;51327;52.466;-1.938;2023-01-04T08:07:05;99257.53;;;9.39;100.00
63607;BME280;51327;52.466;-1.938;2023-01-04T08:09:31;99239.72;;;9.39;100.00
63607;BME280;51327;52.466;-1.938;2023-01-04T08:11:59;99265.53;;;9.39;100.00
63607;BME280;51327;52.466;-1.938;2023-01-04T08:14:24;99273.63;;;9.37;100.00
63607;BME280;51327;52.466;-1.938;2023-01-04T08:16:50;99276.28;;;9.37;100.00
63607;BME280;51327;52.466;-1.938;2023-01-04T08:19:19;99275.00;;;9.30;100.00
63607;BME280;51327;52.466;-1.938;2023-01-04T08:21:45;99258.69;;;9.22;100.00
63607;BME280;51327;52.466;-1.938;2023-01-04T08:24:12;99266.56;;;9.11;100.00
63607;BME280;51327;52.466;-1.938;2023-01-04T08:26:40;99262.88;;;8.99;100.00
63607;BME280;51327;52.466;-1.938;2023-01-04T08:29:12;99258.06;;;8.91;100.00
63607;BME280;51327;52.466;-1.938;2023-01-04T08:31:40;99266.47;;;8.85;100.00
63607;BME280;51327;52.466;-1.938;2023-01-04T08:34:06;99272.22;;;8.79;100.00
63607;BME280;51327;52.466;-1.938;2023-01-04T08:36:33;99269.66;;;8.77;100.00
63607;BME280;51327;52.466;-1.938;2023-01-04T08:39:05;99274.97;;;8.77;100.00
63607;BME280;51327;52.466;-1.938;2023-01-04T08:41:33;99283.91;;;8.76;100.00
63607;BME280;51327;52.466;-1.938;2023-01-04T08:44:18;99291.78;;;8.78;100.00
63607;BME280;51327;52.466;-1.938;2023-01-04T08:46:46;99290.72;;;8.81;100.00
63607;BME280;51327;52.466;-1.938;2023-01-04T08:49:14;99301.28;;;8.82;100.00
63607;BME280;51327;52.466;-1.938;2023-01-04T08:51:42;99292.34;;;8.83;100.00
63607;BME280;51327;52.466;-1.938;2023-01-04T08:54:10;99303.09;;;8.82;100.00
63607;BME280;51327;52.466;-1.938;2023-01-04T08:56:36;99318.41;;;8.78;100.00
63607;BME280;51327;52.466;-1.938;2023-01-04T08:59:01;99325.75;;;8.74;100.00
63607;BME280;51327;52.466;-1.938;2023-01-04T09:01:30;99324.78;;;8.75;100.00
63607;BME280;51327;52.466;-1.938;2023-01-04T09:03:56;99330.78;;;8.79;100.00
63607;BME280;51327;52.466;-1.938;2023-01-04T09:06:22;99338.47;;;8.84;100.00
63607;BME280;51327;52.466;-1.938;2023-01-04T09:08:50;99331.25;;;8.86;100.00
63607;BME280;51327;52.466;-1.938;2023-01-04T09:11:16;99340.72;;;8.90;100.00
63607;BME280;51327;52.466;-1.938;2023-01-04T09:13:42;99340.41;;;8.94;100.00
63607;BME280;51327;52.466;-1.938;2023-01-04T09:16:11;99343.97;;;8.95;100.00
63607;BME280;51327;52.466;-1.938;2023-01-04T09:18:39;99346.63;;;8.95;100.00
63607;BME280;51327;52.466;-1.938;2023-01-04T09:21:06;99331.41;;;8.97;100.00
63607;BME280;51327;52.466;-1.938;2023-01-04T09:23:31;99349.16;;;8.96;100.00
63607;BME280;51327;52.466;-1.938;2023-01-04T09:26:04;99333.41;;;8.93;100.00
63607;BME280;51327;52.466;-1.938;2023-01-04T09:28:29;99327.97;;;8.95;100.00
63607;BME280;51327;52.466;-1.938;2023-01-04T09:30:55;99334.06;;;8.97;100.00
63607;BME280;51327;52.466;-1.938;2023-01-04T09:33:23;99345.56;;;8.97;100.00
63607;BME280;51327;52.466;-1.938;2023-01-04T09:35:48;99346.41;;;8.98;100.00
63607;BME280;51327;52.466;-1.938;2023-01-04T09:38:14;99360.28;;;9.03;100.00
63607;BME280;51327;52.466;-1.938;2023-01-04T09:40:53;99359.13;;;9.07;100.00
63607;BME280;51327;52.466;-1.938;2023-01-04T09:43:23;99362.44;;;9.11;100.00
63607;BME280;51327;52.466;-1.938;2023-01-04T09:45:52;99351.59;;;9.14;100.00
63607;BME280;51327;52.466;-1.938;2023-01-04T09:48:22;99360.25;;;9.17;100.00
63607;BME280;51327;52.466;-1.938;2023-01-04T09:50:53;99358.22;;;9.21;100.00
63607;BME280;51327;52.466;-1.938;2023-01-04T09:55:51;99370.38;;;9.25;100.00
63607;BME280;51327;52.466;-1.938;2023-01-04T09:58:21;99384.47;;;9.27;100.00
63607;BME280;51327;52.466;-1.938;2023-01-04T10:03:35;99387.25;;;9.38;100.00
63607;BME280;51327;52.466;-1.938;2023-01-04T10:06:05;99391.44;;;9.43;100.00
63607;BME280;51327;52.466;-1.938;2023-01-04T10:08:33;99392.91;;;9.47;100.00
63607;BME280;51327;52.466;-1.938;2023-01-04T10:16:18;99387.09;;;9.54;100.00
63607;BME280;51327;52.466;-1.938;2023-01-04T10:26:54;99392.31;;;9.56;100.00
63607;BME280;51327;52.466;-1.938;2023-01-04T10:29:29;99387.72;;;9.58;100.00
63607;BME280;51327;52.466;-1.938;2023-01-04T10:32:04;99396.38;;;9.61;100.00
63607;BME280;51327;52.466;-1.938;2023-01-04T10:34:39;99397.91;;;9.66;100.00
63607;BME280;51327;52.466;-1.938;2023-01-04T10:39:40;99392.25;;;9.70;100.00
63607;BME280;51327;52.466;-1.938;2023-01-04T10:42:12;99390.34;;;9.72;100.00
63607;BME280;51327;52.466;-1.938;2023-01-04T10:47:08;99404.22;;;9.77;100.00
63607;BME280;51327;52.466;-1.938;2023-01-04T10:49:42;99406.78;;;9.79;100.00
63607;BME280;51327;52.466;-1.938;2023-01-04T10:52:13;99404.84;;;9.81;100.00
63607;BME280;51327;52.466;-1.938;2023-01-04T10:54:43;99418.91;;;9.83;100.00
63607;BME280;51327;52.466;-1.938;2023-01-04T10:59:54;99423.22;;;9.86;100.00
63607;BME280;51327;52.466;-1.938;2023-01-04T11:02:32;99412.56;;;9.86;100.00
63607;BME280;51327;52.466;-1.938;2023-01-04T11:05:04;99416.91;;;9.87;100.00
63607;BME280;51327;52.466;-1.938;2023-01-04T11:07:37;99421.41;;;9.86;100.00
63607;BME280;51327;52.466;-1.938;2023-01-04T11:10:14;99412.56;;;9.86;100.00
63607;BME280;51327;52.466;-1.938;2023-01-04T11:12:44;99427.59;;;9.87;100.00
63607;BME280;51327;52.466;-1.938;2023-01-04T11:15:10;99413.41;;;9.86;100.00
63607;BME280;51327;52.466;-1.938;2023-01-04T11:17:36;99424.16;;;9.85;100.00
63607;BME280;51327;52.466;-1.938;2023-01-04T11:20:03;99431.22;;;9.86;100.00
63607;BME280;51327;52.466;-1.938;2023-01-04T11:24:58;99428.75;;;9.82;100.00
63607;BME280;51327;52.466;-1.938;2023-01-04T11:27:28;99419.13;;;9.80;100.00
63607;BME280;51327;52.466;-1.938;2023-01-04T11:30:03;99416.56;;;9.78;100.00
63607;BME280;51327;52.466;-1.938;2023-01-04T11:32:40;99427.22;;;9.78;100.00
63607;BME280;51327;52.466;-1.938;2023-01-04T11:35:10;99428.97;;;9.79;100.00
63607;BME280;51327;52.466;-1.938;2023-01-04T11:37:37;99414.66;;;9.80;100.00
63607;BME280;51327;52.466;-1.938;2023-01-04T11:42:43;99412.56;;;9.86;100.00
63607;BME280;51327;52.466;-1.938;2023-01-04T11:45:43;99409.44;;;9.92;100.00
63607;BME280;51327;52.466;-1.938;2023-01-04T11:48:03;99410.63;;;10.00;100.00
63607;BME280;51327;52.466;-1.938;2023-01-04T11:50:38;99424.19;;;10.10;100.00
63607;BME280;51327;52.466;-1.938;2023-01-04T11:53:24;99413.63;;;10.21;100.00
63607;BME280;51327;52.466;-1.938;2023-01-04T11:58:33;99407.69;;;10.43;100.00
63607;BME280;51327;52.466;-1.938;2023-01-04T12:01:01;99417.94;;;10.50;100.00
63607;BME280;51327;52.466;-1.938;2023-01-04T12:03:29;99404.13;;;10.56;100.00
63607;BME280;51327;52.466;-1.938;2023-01-04T12:05:59;99396.03;;;10.57;100.00
63607;BME280;51327;52.466;-1.938;2023-01-04T12:10:52;99408.19;;;10.61;100.00
63607;BME280;51327;52.466;-1.938;2023-01-04T12:13:20;99402.00;;;10.61;100.00
63607;BME280;51327;52.466;-1.938;2023-01-04T12:15:54;99400.41;;;10.58;100.00
63607;BME280;51327;52.466;-1.938;2023-01-04T12:20:51;99416.97;;;10.51;100.00
63607;BME280;51327;52.466;-1.938;2023-01-04T12:23:17;99419.53;;;10.52;100.00
63607;BME280;51327;52.466;-1.938;2023-01-04T12:25:43;99423.78;;;10.55;100.00
63607;BME280;51327;52.466;-1.938;2023-01-04T12:30:53;99430.19;;;10.65;100.00
63607;BME280;51327;52.466;-1.938;2023-01-04T12:41:10;99422.97;;;10.91;98.77
63607;BME280;51327;52.466;-1.938;2023-01-04T12:43:37;99419.47;;;10.91;98.70
63607;BME280;51327;52.466;-1.938;2023-01-04T12:54:44;99422.13;;;10.91;96.45
63607;BME280;51327;52.466;-1.938;2023-01-04T13:02:19;99419.63;;;10.63;95.78
63607;BME280;51327;52.466;-1.938;2023-01-04T13:04:48;99414.72;;;10.57;95.69
63607;BME280;51327;52.466;-1.938;2023-01-04T13:07:58;99424.53;;;10.57;95.95
63607;BME280;51327;52.466;-1.938;2023-01-04T13:21:07;99436.91;;;10.71;94.69
63607;BME280;51327;52.466;-1.938;2023-01-04T13:23:35;99438.59;;;10.72;95.48
63607;BME280;51327;52.466;-1.938;2023-01-04T13:28:48;99435.00;;;10.73;95.22
63607;BME280;51327;52.466;-1.938;2023-01-04T13:31:16;99422.47;;;10.73;95.64
63607;BME280;51327;52.466;-1.938;2023-01-04T13:33:44;99423.66;;;10.69;95.34
63607;BME280;51327;52.466;-1.938;2023-01-04T13:36:10;99416.09;;;10.63;95.55
63607;BME280;51327;52.466;-1.938;2023-01-04T13:38:38;99414.63;;;10.59;95.94
63607;BME280;51327;52.466;-1.938;2023-01-04T13:41:14;99425.63;;;10.54;96.09
63607;BME280;51327;52.466;-1.938;2023-01-04T13:43:55;99410.03;;;10.48;95.85
63607;BME280;51327;52.466;-1.938;2023-01-04T13:46:23;99413.34;;;10.39;95.78
63607;BME280;51327;52.466;-1.938;2023-01-04T13:48:53;99418.16;;;10.34;96.28
63607;BME280;51327;52.466;-1.938;2023-01-04T13:51:28;99421.78;;;10.33;96.50
63607;BME280;51327;52.466;-1.938;2023-01-04T13:53:59;99419.38;;;10.28;96.36
63607;BME280;51327;52.466;-1.938;2023-01-04T13:56:31;99420.56;;;10.24;96.38
63607;BME280;51327;52.466;-1.938;2023-01-04T13:58:57;99414.69;;;10.19;96.44
63607;BME280;51327;52.466;-1.938;2023-01-04T14:01:34;99413.09;;;10.16;96.77
63607;BME280;51327;52.466;-1.938;2023-01-04T14:04:04;99416.63;;;10.17;96.72
63607;BME280;51327;52.466;-1.938;2023-01-04T14:06:40;99411.09;;;10.20;96.66
63607;BME280;51327;52.466;-1.938;2023-01-04T14:17:57;99410.97;;;10.21;96.55
63607;BME280;51327;52.466;-1.938;2023-01-04T14:19:56;99419.94;;;10.20;96.73
63607;BME280;51327;52.466;-1.938;2023-01-04T14:22:28;99420.03;;;10.19;96.81
63607;BME280;51327;52.466;-1.938;2023-01-04T14:24:58;99419.28;;;10.17;96.63
63607;BME280;51327;52.466;-1.938;2023-01-04T14:29:55;99445.34;;;10.13;96.83
63607;BME280;51327;52.466;-1.938;2023-01-04T14:32:21;99450.78;;;10.12;97.26
63607;BME280;51327;52.466;-1.938;2023-01-04T14:34:48;99453.53;;;10.10;96.95
63607;BME280;51327;52.466;-1.938;2023-01-04T14:37:14;99448.19;;;10.10;96.73
63607;BME280;51327;52.466;-1.938;2023-01-04T14:39:39;99451.84;;;10.09;96.74
63607;BME280;51327;52.466;-1.938;2023-01-04T14:42:41;99443.09;;;10.07;97.04
63607;BME280;51327;52.466;-1.938;2023-01-04T14:44:59;99452.16;;;10.04;97.20
63607;BME280;51327;52.466;-1.938;2023-01-04T14:47:28;99457.59;;;10.03;96.88
63607;BME280;51327;52.466;-1.938;2023-01-04T14:49:53;99436.47;;;10.00;97.00
63607;BME280;51327;52.466;-1.938;2023-01-04T14:52:20;99446.28;;;9.99;97.21